sensor_id;sensor_type;location;lat;lon;timestamp;pressure;altitude;pressure_sealevel;temperature;humidity
53514;BME280;39768;54.148;12.174;2023-04-12T00:00:28;100975.66;;;7.84;100.00
53514;BME280;39768;54.148;12.174;2023-04-12T00:04:30;100971.88;;;6.97;100.00
53514;BME280;39768;54.148;12.174;2023-04-12T00:08:34;100962.44;;;8.10;100.00
53514;BME280;39768;54.148;12.174;2023-04-12T00:12:36;100951.88;;;8.14;98.71
53514;BME280;39768;54.148;12.174;2023-04-12T00:16:37;100953.59;;;8.17;97.72
53514;BME280;39768;54.148;12.174;2023-04-12T00:20:39;100956.22;;;7.49;99.41
53514;BME280;39768;54.148;12.174;2023-04-12T00:24:41;100951.66;;;6.96;100.00
53514;BME280;39768;54.148;12.174;2023-04-12T00:28:43;100946.41;;;7.16;100.00
53514;BME280;39768;54.148;12.174;2023-04-12T00:32:45;100929.81;;;7.53;100.00
53514;BME280;39768;54.148;12.174;2023-04-12T00:36:47;100927.19;;;8.09;100.00
53514;BME280;39768;54.148;12.174;2023-04-12T00:40:48;100921.88;;;8.20;100.00
53514;BME280;39768;54.148;12.174;2023-04-12T00:44:49;100924.53;;;7.67;100.00
53514;BME280;39768;54.148;12.174;2023-04-12T00:48:51;100927.19;;;7.65;100.00
53514;BME280;39768;54.148;12.174;2023-04-12T00:52:52;100934.22;;;7.74;99.92
53514;BME280;39768;54.148;12.174;2023-04-12T00:56:55;100936.00;;;7.70;100.00
53514;BME280;39768;54.148;12.174;2023-04-12T01:00:57;100936.88;;;7.77;100.00
53514;BME280;39768;54.148;12.174;2023-04-12T01:04:59;100943.06;;;8.11;100.00
53514;BME280;39768;54.148;12.174;2023-04-12T01:14:06;100931.59;;;7.71;100.00
53514;BME280;39768;54.148;12.174;2023-04-12T01:18:11;100931.56;;;7.72;100.00
53514;BME280;39768;54.148;12.174;2023-04-12T01:27:01;100909.53;;;7.48;100.00
53514;BME280;39768;54.148;12.174;2023-04-12T01:31:05;100908.69;;;7.76;100.00
53514;BME280;39768;54.148;12.174;2023-04-12T01:35:07;100911.22;;;7.11;100.00
53514;BME280;39768;54.148;12.174;2023-04-12T01:39:10;100917.81;;;6.19;100.00
53514;BME280;39768;54.148;12.174;2023-04-12T01:43:12;100914.63;;;6.85;100.00
53514;BME280;39768;54.148;12.174;2023-04-12T01:47:15;100911.25;;;7.21;100.00
53514;BME280;39768;54.148;12.174;2023-04-12T01:51:54;100908.66;;;7.38;100.00
53514;BME280;39768;54.148;12.174;2023-04-12T01:56:05;100908.66;;;7.38;100.00
53514;BME280;39768;54.148;12.174;2023-04-12T02:00:08;100901.63;;;7.49;100.00
53514;BME280;39768;54.148;12.174;2023-04-12T02:04:14;100918.16;;;6.87;100.00
53514;BME280;39768;54.148;12.174;2023-04-12T02:08:17;100894.41;;;6.86;100.00
53514;BME280;39768;54.148;12.174;2023-04-12T02:12:21;100892.78;;;7.24;100.00
53514;BME280;39768;54.148;12.174;2023-04-12T02:16:23;100888.38;;;7.32;100.00
53514;BME280;39768;54.148;12.174;2023-04-12T02:20:25;100891.88;;;7.30;100.00
53514;BME280;39768;54.148;12.174;2023-04-12T02:24:27;100881.25;;;7.01;100.00
53514;BME280;39768;54.148;12.174;2023-04-12T02:28:29;100878.72;;;7.45;100.00
53514;BME280;39768;54.148;12.174;2023-04-12T02:32:31;100876.00;;;6.96;100.00
53514;BME280;39768;54.148;12.174;2023-04-12T02:36:34;100871.63;;;7.15;100.00
53514;BME280;39768;54.148;12.174;2023-04-12T02:40:39;100866.38;;;7.33;100.00
53514;BME280;39768;54.148;12.174;2023-04-12T02:44:48;100863.75;;;7.61;100.00
53514;BME280;39768;54.148;12.174;2023-04-12T02:48:50;100850.53;;;7.58;100.00
53514;BME280;39768;54.148;12.174;2023-04-12T02:52:53;100841.75;;;7.27;100.00
53514;BME280;39768;54.148;12.174;2023-04-12T02:56:55;100837.34;;;7.36;100.00
53514;BME280;39768;54.148;12.174;2023-04-12T03:01:15;100826.50;;;6.41;100.00
53514;BME280;39768;54.148;12.174;2023-04-12T03:05:37;100832.81;;;6.76;100.00
53514;BME280;39768;54.148;12.174;2023-04-12T03:09:40;100826.31;;;5.99;100.00
53514;BME280;39768;54.148;12.174;2023-04-12T03:13:43;100815.75;;;5.98;100.00
53514;BME280;39768;54.148;12.174;2023-04-12T03:17:44;100805.28;;;4.98;100.00
53514;BME280;39768;54.148;12.174;2023-04-12T03:21:47;100812.59;;;5.29;100.00
53514;BME280;39768;54.148;12.174;2023-04-12T03:25:49;100811.25;;;5.85;100.00
53514;BME280;39768;54.148;12.174;2023-04-12T03:30:04;100814.06;;;6.12;100.00
53514;BME280;39768;54.148;12.174;2023-04-12T03:34:10;100808.00;;;6.22;100.00
53514;BME280;39768;54.148;12.174;2023-04-12T03:38:16;100800.88;;;6.05;100.00
53514;BME280;39768;54.148;12.174;2023-04-12T03:42:18;100798.84;;;5.70;100.00
53514;BME280;39768;54.148;12.174;2023-04-12T03:46:36;100793.91;;;6.19;100.00
53514;BME280;39768;54.148;12.174;2023-04-12T03:50:42;100785.91;;;6.02;100.00
53514;BME280;39768;54.148;12.174;2023-04-12T03:54:54;100773.72;;;6.19;100.00
53514;BME280;39768;54.148;12.174;2023-04-12T03:59:00;100760.97;;;5.51;100.00
53514;BME280;39768;54.148;12.174;2023-04-12T04:03:03;100757.97;;;6.34;100.00
53514;BME280;39768;54.148;12.174;2023-04-12T04:07:12;100748.28;;;6.32;100.00
53514;BME280;39768;54.148;12.174;2023-04-12T04:11:16;100750.06;;;6.44;100.00
53514;BME280;39768;54.148;12.174;2023-04-12T04:15:24;100738.69;;;6.61;100.00
53514;BME280;39768;54.148;12.174;2023-04-12T04:19:26;100749.06;;;6.13;100.00
53514;BME280;39768;54.148;12.174;2023-04-12T04:23:30;100753.25;;;5.77;100.00
53514;BME280;39768;54.148;12.174;2023-04-12T04:27:42;100753.41;;;6.01;100.00
53514;BME280;39768;54.148;12.174;2023-04-12T04:31:47;100753.53;;;6.30;100.00
53514;BME280;39768;54.148;12.174;2023-04-12T04:35:50;100748.34;;;6.59;100.00
53514;BME280;39768;54.148;12.174;2023-04-12T04:39:59;100745.66;;;6.40;100.00
53514;BME280;39768;54.148;12.174;2023-04-12T04:44:00;100741.31;;;6.58;100.00
53514;BME280;39768;54.148;12.174;2023-04-12T04:48:06;100739.59;;;7.70;100.00
53514;BME280;39768;54.148;12.174;2023-04-12T04:52:08;100735.25;;;9.28;93.83
53514;BME280;39768;54.148;12.174;2023-04-12T04:56:10;100722.06;;;10.06;83.04
53514;BME280;39768;54.148;12.174;2023-04-12T05:00:12;100713.84;;;10.29;79.83
53514;BME280;39768;54.148;12.174;2023-04-12T05:04:17;100706.91;;;10.83;72.76
53514;BME280;39768;54.148;12.174;2023-04-12T05:08:19;100712.56;;;11.64;65.25
53514;BME280;39768;54.148;12.174;2023-04-12T05:12:22;100706.50;;;12.04;63.42
53514;BME280;39768;54.148;12.174;2023-04-12T05:16:28;100697.34;;;12.59;63.37
53514;BME280;39768;54.148;12.174;2023-04-12T05:20:29;100692.91;;;11.25;65.78
53514;BME280;39768;54.148;12.174;2023-04-12T05:24:32;100684.81;;;10.81;72.34
53514;BME280;39768;54.148;12.174;2023-04-12T05:28:34;100680.94;;;10.42;76.76
53514;BME280;39768;54.148;12.174;2023-04-12T05:32:35;100685.91;;;10.66;76.38
53514;BME280;39768;54.148;12.174;2023-04-12T05:36:37;100673.16;;;10.89;76.55
53514;BME280;39768;54.148;12.174;2023-04-12T05:40:38;100677.03;;;10.03;78.25
53514;BME280;39768;54.148;12.174;2023-04-12T05:44:43;100673.56;;;9.15;89.06
53514;BME280;39768;54.148;12.174;2023-04-12T05:48:48;100667.44;;;9.05;94.01
53514;BME280;39768;54.148;12.174;2023-04-12T05:52:50;100666.19;;;8.40;100.00
53514;BME280;39768;54.148;12.174;2023-04-12T05:56:53;100663.09;;;9.03;100.00
53514;BME280;39768;54.148;12.174;2023-04-12T06:00:56;100646.94;;;9.27;97.70
53514;BME280;39768;54.148;12.174;2023-04-12T06:04:57;100636.53;;;9.90;94.61
53514;BME280;39768;54.148;12.174;2023-04-12T06:09:02;100644.63;;;9.78;93.03
53514;BME280;39768;54.148;12.174;2023-04-12T06:13:05;100635.25;;;10.21;93.48
53514;BME280;39768;54.148;12.174;2023-04-12T06:17:08;100628.53;;;9.93;95.35
53514;BME280;39768;54.148;12.174;2023-04-12T06:21:09;100617.19;;;9.80;97.08
53514;BME280;39768;54.148;12.174;2023-04-12T06:25:12;100617.75;;;10.05;96.44
53514;BME280;39768;54.148;12.174;2023-04-12T06:29:14;100613.13;;;10.22;96.39
53514;BME280;39768;54.148;12.174;2023-04-12T06:33:16;100606.91;;;10.82;90.81
53514;BME280;39768;54.148;12.174;2023-04-12T06:37:17;100597.16;;;10.82;90.66
53514;BME280;39768;54.148;12.174;2023-04-12T06:41:19;100598.31;;;10.66;90.54
53514;BME280;39768;54.148;12.174;2023-04-12T06:45:31;100595.31;;;10.84;91.89
53514;BME280;39768;54.148;12.174;2023-04-12T06:49:33;100591.94;;;11.25;88.13
53514;BME280;39768;54.148;12.174;2023-04-12T06:53:34;100586.25;;;11.44;88.48
53514;BME280;39768;54.148;12.174;2023-04-12T06:57:40;100579.88;;;11.52;83.56
53514;BME280;39768;54.148;12.174;2023-04-12T07:01:42;100579.56;;;11.68;82.55
53514;BME280;39768;54.148;12.174;2023-04-12T07:05:43;100567.91;;;11.73;81.16
53514;BME280;39768;54.148;12.174;2023-04-12T07:09:45;100559.00;;;11.77;83.41
53514;BME280;39768;54.148;12.174;2023-04-12T07:13:48;100555.34;;;12.21;79.65
53514;BME280;39768;54.148;12.174;2023-04-12T07:17:49;100542.94;;;12.20;77.47
53514;BME280;39768;54.148;12.174;2023-04-12T07:21:52;100543.47;;;12.36;76.92
53514;BME280;39768;54.148;12.174;2023-04-12T07:25:58;100535.38;;;12.76;70.08
53514;BME280;39768;54.148;12.174;2023-04-12T07:30:00;100542.00;;;12.92;70.43
53514;BME280;39768;54.148;12.174;2023-04-12T07:34:01;100538.03;;;13.41;66.39
53514;BME280;39768;54.148;12.174;2023-04-12T07:38:03;100531.19;;;13.32;70.21
53514;BME280;39768;54.148;12.174;2023-04-12T07:42:04;100525.19;;;13.55;65.61
53514;BME280;39768;54.148;12.174;2023-04-12T07:46:05;100519.97;;;12.87;68.66
53514;BME280;39768;54.148;12.174;2023-04-12T07:50:09;100509.00;;;13.32;66.86
53514;BME280;39768;54.148;12.174;2023-04-12T07:54:13;100498.25;;;13.64;65.28
53514;BME280;39768;54.148;12.174;2023-04-12T07:58:15;100498.28;;;13.33;66.86
53514;BME280;39768;54.148;12.174;2023-04-12T08:02:17;100499.53;;;12.88;66.49
53514;BME280;39768;54.148;12.174;2023-04-12T08:06:25;100500.22;;;13.58;63.18
53514;BME280;39768;54.148;12.174;2023-04-12T08:10:31;100497.63;;;13.25;63.81
53514;BME280;39768;54.148;12.174;2023-04-12T08:14:32;100489.91;;;13.75;60.65
53514;BME280;39768;54.148;12.174;2023-04-12T08:18:34;100475.31;;;13.87;58.79
53514;BME280;39768;54.148;12.174;2023-04-12T08:22:35;100466.03;;;14.79;58.97
53514;BME280;39768;54.148;12.174;2023-04-12T08:26:37;100459.34;;;14.91;55.73
53514;BME280;39768;54.148;12.174;2023-04-12T08:30:38;100464.03;;;14.33;56.06
53514;BME280;39768;54.148;12.174;2023-04-12T08:34:39;100450.19;;;14.73;56.38
53514;BME280;39768;54.148;12.174;2023-04-12T08:38:43;100440.47;;;14.70;52.83
53514;BME280;39768;54.148;12.174;2023-04-12T08:42:46;100425.88;;;14.56;55.51
53514;BME280;39768;54.148;12.174;2023-04-12T08:46:48;100432.25;;;14.76;53.23
53514;BME280;39768;54.148;12.174;2023-04-12T08:50:52;100431.69;;;15.40;50.42
53514;BME280;39768;54.148;12.174;2023-04-12T08:54:55;100424.88;;;15.31;50.22
53514;BME280;39768;54.148;12.174;2023-04-12T08:58:56;100428.00;;;14.46;51.93
53514;BME280;39768;54.148;12.174;2023-04-12T09:02:58;100422.72;;;15.41;50.47
53514;BME280;39768;54.148;12.174;2023-04-12T09:07:00;100426.34;;;15.85;49.23
53514;BME280;39768;54.148;12.174;2023-04-12T09:11:22;100421.69;;;14.98;50.10
53514;BME280;39768;54.148;12.174;2023-04-12T09:15:24;100419.16;;;15.87;49.76
53514;BME280;39768;54.148;12.174;2023-04-12T09:19:31;100405.13;;;15.80;47.58
53514;BME280;39768;54.148;12.174;2023-04-12T09:23:33;100397.34;;;15.51;50.79
53514;BME280;39768;54.148;12.174;2023-04-12T09:27:48;100388.66;;;15.90;46.20
53514;BME280;39768;54.148;12.174;2023-04-12T09:36:01;100378.66;;;15.95;44.53
53514;BME280;39768;54.148;12.174;2023-04-12T09:40:08;100356.28;;;16.17;43.70
53514;BME280;39768;54.148;12.174;2023-04-12T09:44:26;100362.75;;;16.12;43.63
53514;BME280;39768;54.148;12.174;2023-04-12T09:48:29;100346.13;;;16.04;43.30
53514;BME280;39768;54.148;12.174;2023-04-12T09:52:34;100343.38;;;15.63;43.34
53514;BME280;39768;54.148;12.174;2023-04-12T09:56:38;100329.94;;;15.86;43.31
53514;BME280;39768;54.148;12.174;2023-04-12T10:00:42;100317.09;;;15.95;42.71
53514;BME280;39768;54.148;12.174;2023-04-12T10:04:46;100330.13;;;15.82;42.53
53514;BME280;39768;54.148;12.174;2023-04-12T10:08:48;100324.94;;;15.99;42.68
53514;BME280;39768;54.148;12.174;2023-04-12T10:12:50;100327.47;;;16.22;41.20
53514;BME280;39768;54.148;12.174;2023-04-12T10:16:54;100308.72;;;16.43;42.93
53514;BME280;39768;54.148;12.174;2023-04-12T10:20:58;100313.47;;;16.56;41.83
53514;BME280;39768;54.148;12.174;2023-04-12T10:24:59;100295.63;;;16.95;41.27
53514;BME280;39768;54.148;12.174;2023-04-12T10:33:29;100285.34;;;16.85;41.03
53514;BME280;39768;54.148;12.174;2023-04-12T10:38:05;100274.84;;;17.00;39.14
53514;BME280;39768;54.148;12.174;2023-04-12T10:50:40;100247.66;;;17.43;38.55
53514;BME280;39768;54.148;12.174;2023-04-12T10:54:42;100235.34;;;17.92;39.52
53514;BME280;39768;54.148;12.174;2023-04-12T11:03:05;100219.91;;;17.44;38.24
53514;BME280;39768;54.148;12.174;2023-04-12T11:07:08;100215.53;;;17.78;39.72
53514;BME280;39768;54.148;12.174;2023-04-12T11:11:40;100202.91;;;17.80;39.13
53514;BME280;39768;54.148;12.174;2023-04-12T11:15:41;100200.72;;;17.52;38.66
53514;BME280;39768;54.148;12.174;2023-04-12T11:19:58;100200.88;;;17.49;38.66
53514;BME280;39768;54.148;12.174;2023-04-12T11:24:00;100196.59;;;17.64;38.19
53514;BME280;39768;54.148;12.174;2023-04-12T11:28:02;100174.34;;;17.43;39.30
53514;BME280;39768;54.148;12.174;2023-04-12T11:32:18;100182.50;;;18.10;38.53
53514;BME280;39768;54.148;12.174;2023-04-12T11:36:19;100168.34;;;17.55;38.24
53514;BME280;39768;54.148;12.174;2023-04-12T11:40:21;100167.81;;;17.48;39.07
53514;BME280;39768;54.148;12.174;2023-04-12T11:44:23;100163.31;;;17.66;38.61
53514;BME280;39768;54.148;12.174;2023-04-12T11:48:25;100159.22;;;17.93;36.97
53514;BME280;39768;54.148;12.174;2023-04-12T11:52:29;100156.63;;;17.75;37.27
53514;BME280;39768;54.148;12.174;2023-04-12T11:56:31;100135.84;;;17.61;36.95
53514;BME280;39768;54.148;12.174;2023-04-12T12:00:33;100132.53;;;17.56;37.30
53514;BME280;39768;54.148;12.174;2023-04-12T12:04:35;100122.88;;;18.19;37.35
53514;BME280;39768;54.148;12.174;2023-04-12T12:08:37;100123.69;;;18.53;36.01
53514;BME280;39768;54.148;12.174;2023-04-12T12:12:42;100109.19;;;18.08;37.36
53514;BME280;39768;54.148;12.174;2023-04-12T12:16:58;100108.75;;;18.16;36.38
53514;BME280;39768;54.148;12.174;2023-04-12T12:21:00;100112.84;;;17.90;36.85
53514;BME280;39768;54.148;12.174;2023-04-12T12:25:01;100104.03;;;18.68;36.34
53514;BME280;39768;54.148;12.174;2023-04-12T12:29:02;100102.28;;;18.36;36.24
53514;BME280;39768;54.148;12.174;2023-04-12T12:33:05;100094.59;;;17.64;36.49
53514;BME280;39768;54.148;12.174;2023-04-12T12:37:11;100102.06;;;17.74;36.00
53514;BME280;39768;54.148;12.174;2023-04-12T12:41:14;100094.59;;;17.64;36.11
53514;BME280;39768;54.148;12.174;2023-04-12T12:45:18;100089.34;;;17.43;37.54
53514;BME280;39768;54.148;12.174;2023-04-12T12:49:20;100085.75;;;17.94;37.39
53514;BME280;39768;54.148;12.174;2023-04-12T12:53:21;100078.06;;;17.71;36.67
53514;BME280;39768;54.148;12.174;2023-04-12T12:57:24;100078.84;;;17.56;36.60
53514;BME280;39768;54.148;12.174;2023-04-12T13:01:27;100065.03;;;17.96;36.57
53514;BME280;39768;54.148;12.174;2023-04-12T13:05:28;100059.88;;;16.91;38.01
53514;BME280;39768;54.148;12.174;2023-04-12T13:09:30;100061.13;;;17.36;38.08
53514;BME280;39768;54.148;12.174;2023-04-12T13:13:31;100048.34;;;17.07;38.13
53514;BME280;39768;54.148;12.174;2023-04-12T13:17:33;100059.31;;;16.85;38.52
53514;BME280;39768;54.148;12.174;2023-04-12T13:21:34;100050.78;;;16.77;38.20
53514;BME280;39768;54.148;12.174;2023-04-12T13:25:36;100044.03;;;17.72;38.05
53514;BME280;39768;54.148;12.174;2023-04-12T13:29:37;100038.81;;;17.51;37.85
53514;BME280;39768;54.148;12.174;2023-04-12T13:33:39;100036.16;;;17.84;37.17
53514;BME280;39768;54.148;12.174;2023-04-12T13:37:40;100030.00;;;17.82;36.14
53514;BME280;39768;54.148;12.174;2023-04-12T13:41:42;100022.72;;;17.69;38.11
53514;BME280;39768;54.148;12.174;2023-04-12T13:45:43;100020.84;;;17.86;37.13
53514;BME280;39768;54.148;12.174;2023-04-12T13:49:45;99999.19;;;17.56;37.50
53514;BME280;39768;54.148;12.174;2023-04-12T13:53:46;99991.69;;;17.30;38.38
53514;BME280;39768;54.148;12.174;2023-04-12T13:57:48;99998.03;;;17.12;38.38
53514;BME280;39768;54.148;12.174;2023-04-12T14:01:49;99994.31;;;16.97;37.36
53514;BME280;39768;54.148;12.174;2023-04-12T14:05:51;100002.06;;;17.20;38.30
53514;BME280;39768;54.148;12.174;2023-04-12T14:09:52;99980.91;;;16.80;39.29
53514;BME280;39768;54.148;12.174;2023-04-12T14:13:55;99986.84;;;17.04;39.36
53514;BME280;39768;54.148;12.174;2023-04-12T14:17:57;99980.84;;;16.64;39.27
53514;BME280;39768;54.148;12.174;2023-04-12T14:21:58;99977.56;;;16.76;38.59
53514;BME280;39768;54.148;12.174;2023-04-12T14:26:00;99985.03;;;16.87;39.37
53514;BME280;39768;54.148;12.174;2023-04-12T14:30:02;99979.75;;;16.49;39.00
53514;BME280;39768;54.148;12.174;2023-04-12T14:34:04;99972.88;;;16.97;39.86
53514;BME280;39768;54.148;12.174;2023-04-12T14:38:06;99979.19;;;16.79;39.75
53514;BME280;39768;54.148;12.174;2023-04-12T14:42:07;99979.66;;;17.04;39.33
53514;BME280;39768;54.148;12.174;2023-04-12T14:46:09;99982.81;;;16.25;40.71
53514;BME280;39768;54.148;12.174;2023-04-12T14:50:11;99977.91;;;15.97;41.56
53514;BME280;39768;54.148;12.174;2023-04-12T14:54:13;99968.00;;;15.61;43.15
53514;BME280;39768;54.148;12.174;2023-04-12T14:58:15;99959.84;;;15.83;42.76
53514;BME280;39768;54.148;12.174;2023-04-12T15:02:16;99958.84;;;15.67;44.14
53514;BME280;39768;54.148;12.174;2023-04-12T15:06:18;99968.56;;;16.05;43.11
53514;BME280;39768;54.148;12.174;2023-04-12T15:10:21;99939.09;;;15.11;47.35
53514;BME280;39768;54.148;12.174;2023-04-12T15:14:22;99946.97;;;15.72;47.67
53514;BME280;39768;54.148;12.174;2023-04-12T15:18:23;99937.53;;;15.45;48.05
53514;BME280;39768;54.148;12.174;2023-04-12T15:22:25;99935.03;;;15.22;46.88
53514;BME280;39768;54.148;12.174;2023-04-12T15:26:26;99936.22;;;14.96;46.90
53514;BME280;39768;54.148;12.174;2023-04-12T15:30:28;99936.19;;;15.74;45.06
53514;BME280;39768;54.148;12.174;2023-04-12T15:34:30;99931.00;;;15.71;45.63
53514;BME280;39768;54.148;12.174;2023-04-12T15:38:40;99941.47;;;15.75;46.82
53514;BME280;39768;54.148;12.174;2023-04-12T15:42:42;99942.31;;;15.76;46.10
53514;BME280;39768;54.148;12.174;2023-04-12T15:46:44;99938.69;;;15.39;48.39
53514;BME280;39768;54.148;12.174;2023-04-12T15:50:59;99935.88;;;15.03;49.74
53514;BME280;39768;54.148;12.174;2023-04-12T15:55:01;99932.47;;;15.39;49.03
53514;BME280;39768;54.148;12.174;2023-04-12T15:59:02;99930.53;;;15.80;50.25
53514;BME280;39768;54.148;12.174;2023-04-12T16:03:04;99930.72;;;15.38;51.90
53514;BME280;39768;54.148;12.174;2023-04-12T16:07:07;99924.41;;;15.59;53.04
53514;BME280;39768;54.148;12.174;2023-04-12T16:11:09;99931.03;;;15.88;51.83
53514;BME280;39768;54.148;12.174;2023-04-12T16:15:12;99916.50;;;15.37;52.99
53514;BME280;39768;54.148;12.174;2023-04-12T16:19:13;99915.25;;;15.44;52.21
53514;BME280;39768;54.148;12.174;2023-04-12T16:23:15;99909.94;;;15.63;50.87
53514;BME280;39768;54.148;12.174;2023-04-12T16:27:16;99900.25;;;15.03;52.94
53514;BME280;39768;54.148;12.174;2023-04-12T16:31:19;99906.00;;;15.33;53.35
53514;BME280;39768;54.148;12.174;2023-04-12T16:35:21;99901.22;;;15.21;53.38
53514;BME280;39768;54.148;12.174;2023-04-12T16:39:22;99900.84;;;15.67;53.33
53514;BME280;39768;54.148;12.174;2023-04-12T16:43:24;99893.72;;;15.10;53.98
53514;BME280;39768;54.148;12.174;2023-04-12T16:47:26;99876.59;;;15.33;52.36
53514;BME280;39768;54.148;12.174;2023-04-12T16:51:27;99876.81;;;15.09;56.22
53514;BME280;39768;54.148;12.174;2023-04-12T16:55:45;99861.91;;;15.04;56.10
53514;BME280;39768;54.148;12.174;2023-04-12T16:59:49;99866.81;;;14.94;55.66
53514;BME280;39768;54.148;12.174;2023-04-12T17:03:51;99863.28;;;14.73;57.26
53514;BME280;39768;54.148;12.174;2023-04-12T17:07:53;99868.22;;;15.22;55.58
53514;BME280;39768;54.148;12.174;2023-04-12T17:11:55;99868.47;;;15.15;55.47
53514;BME280;39768;54.148;12.174;2023-04-12T17:15:56;99872.47;;;15.26;56.99
53514;BME280;39768;54.148;12.174;2023-04-12T17:19:58;99871.31;;;15.31;57.25
53514;BME280;39768;54.148;12.174;2023-04-12T17:23:59;99865.16;;;15.10;56.77
53514;BME280;39768;54.148;12.174;2023-04-12T17:28:02;99867.53;;;15.16;57.93
53514;BME280;39768;54.148;12.174;2023-04-12T17:32:03;99874.59;;;14.99;57.92
53514;BME280;39768;54.148;12.174;2023-04-12T17:36:05;99882.25;;;15.27;58.17
53514;BME280;39768;54.148;12.174;2023-04-12T17:40:12;99878.00;;;14.63;63.59
53514;BME280;39768;54.148;12.174;2023-04-12T17:44:14;99878.84;;;14.43;65.96
53514;BME280;39768;54.148;12.174;2023-04-12T17:48:15;99875.31;;;14.63;66.84
53514;BME280;39768;54.148;12.174;2023-04-12T17:52:17;99874.53;;;14.19;72.03
53514;BME280;39768;54.148;12.174;2023-04-12T17:56:18;99874.06;;;14.09;74.62
53514;BME280;39768;54.148;12.174;2023-04-12T18:00:21;99877.97;;;14.01;79.32
53514;BME280;39768;54.148;12.174;2023-04-12T18:04:24;99879.97;;;13.74;85.40
53514;BME280;39768;54.148;12.174;2023-04-12T18:08:27;99880.28;;;13.88;88.43
53514;BME280;39768;54.148;12.174;2023-04-12T18:12:29;99871.94;;;14.18;86.04
53514;BME280;39768;54.148;12.174;2023-04-12T18:16:31;99874.34;;;14.66;83.10
53514;BME280;39768;54.148;12.174;2023-04-12T18:20:33;99873.75;;;14.17;88.79
53514;BME280;39768;54.148;12.174;2023-04-12T18:24:34;99869.34;;;14.16;89.45
53514;BME280;39768;54.148;12.174;2023-04-12T18:28:38;99867.63;;;14.56;84.48
53514;BME280;39768;54.148;12.174;2023-04-12T18:32:41;99864.25;;;14.52;85.55
53514;BME280;39768;54.148;12.174;2023-04-12T18:36:43;99858.06;;;14.30;86.03
53514;BME280;39768;54.148;12.174;2023-04-12T18:40:45;99859.47;;;14.18;87.23
53514;BME280;39768;54.148;12.174;2023-04-12T18:44:46;99853.78;;;13.84;90.67
53514;BME280;39768;54.148;12.174;2023-04-12T18:48:47;99854.69;;;13.62;90.44
53514;BME280;39768;54.148;12.174;2023-04-12T18:52:52;99853.34;;;14.36;87.21
53514;BME280;39768;54.148;12.174;2023-04-12T18:56:53;99850.47;;;14.21;89.15
53514;BME280;39768;54.148;12.174;2023-04-12T19:00:55;99842.47;;;13.99;90.02
53514;BME280;39768;54.148;12.174;2023-04-12T19:04:56;99839.97;;;14.16;88.25
53514;BME280;39768;54.148;12.174;2023-04-12T19:08:57;99830.13;;;13.76;87.97
53514;BME280;39768;54.148;12.174;2023-04-12T19:12:59;99837.16;;;13.99;88.48
53514;BME280;39768;54.148;12.174;2023-04-12T19:17:00;99831.00;;;13.76;88.50
53514;BME280;39768;54.148;12.174;2023-04-12T19:21:03;99834.56;;;14.18;90.03
53514;BME280;39768;54.148;12.174;2023-04-12T19:25:05;99832.03;;;14.35;88.02
53514;BME280;39768;54.148;12.174;2023-04-12T19:29:07;99828.75;;;14.28;86.67
53514;BME280;39768;54.148;12.174;2023-04-12T19:33:08;99830.56;;;14.28;87.41
53514;BME280;39768;54.148;12.174;2023-04-12T19:37:10;99816.69;;;14.40;86.80
53514;BME280;39768;54.148;12.174;2023-04-12T19:41:11;99815.94;;;14.16;87.86
53514;BME280;39768;54.148;12.174;2023-04-12T19:45:13;99809.75;;;14.36;87.03
53514;BME280;39768;54.148;12.174;2023-04-12T19:49:15;99802.94;;;14.29;86.73
53514;BME280;39768;54.148;12.174;2023-04-12T19:53:16;99802.06;;;14.28;87.27
53514;BME280;39768;54.148;12.174;2023-04-12T19:57:18;99801.16;;;14.09;87.06
53514;BME280;39768;54.148;12.174;2023-04-12T20:01:20;99799.47;;;14.06;86.94
53514;BME280;39768;54.148;12.174;2023-04-12T20:05:22;99796.81;;;13.64;87.57
53514;BME280;39768;54.148;12.174;2023-04-12T20:09:24;99789.13;;;13.57;86.04
53514;BME280;39768;54.148;12.174;2023-04-12T20:13:26;99795.38;;;13.77;86.63
53514;BME280;39768;54.148;12.174;2023-04-12T20:17:30;99791.50;;;13.64;87.21
53514;BME280;39768;54.148;12.174;2023-04-12T20:21:31;99784.84;;;13.74;85.94
53514;BME280;39768;54.148;12.174;2023-04-12T20:25:34;99790.59;;;14.06;84.90
53514;BME280;39768;54.148;12.174;2023-04-12T20:29:37;99776.16;;;14.10;84.13
53514;BME280;39768;54.148;12.174;2023-04-12T20:33:39;99772.66;;;14.09;83.10
53514;BME280;39768;54.148;12.174;2023-04-12T20:37:42;99763.53;;;13.95;84.84
53514;BME280;39768;54.148;12.174;2023-04-12T20:41:43;99760.16;;;14.10;84.10
53514;BME280;39768;54.148;12.174;2023-04-12T20:45:50;99749.16;;;13.97;82.62
53514;BME280;39768;54.148;12.174;2023-04-12T20:49:51;99755.63;;;14.32;82.32
53514;BME280;39768;54.148;12.174;2023-04-12T20:53:53;99748.91;;;14.03;83.19
53514;BME280;39768;54.148;12.174;2023-04-12T20:57:59;99750.03;;;13.98;85.50
53514;BME280;39768;54.148;12.174;2023-04-12T21:02:00;99740.28;;;13.97;86.06
53514;BME280;39768;54.148;12.174;2023-04-12T21:06:03;99742.94;;;13.97;84.65
53514;BME280;39768;54.148;12.174;2023-04-12T21:10:05;99732.47;;;14.12;84.84
53514;BME280;39768;54.148;12.174;2023-04-12T21:14:06;99733.22;;;14.16;85.02
53514;BME280;39768;54.148;12.174;2023-04-12T21:18:11;99739.94;;;14.25;83.90
53514;BME280;39768;54.148;12.174;2023-04-12T21:22:12;99723.00;;;14.46;82.29
53514;BME280;39768;54.148;12.174;2023-04-12T21:26:13;99727.13;;;14.12;84.73
53514;BME280;39768;54.148;12.174;2023-04-12T21:30:16;99722.34;;;14.21;84.30